Startpagina
METAR-TAF:

METAR-TAF

Vliegvelden :

Karachi, Pakistan

breedte: 24-54N, lengte: 067-08E, hoogte: 21 m

Actueel weer

Dit bericht is 23 minuten geleden gemaakt, om 18:55 UTC
Wind 12 kt uit het westen
Temperatuur 27°C
Vochtigheid 66%
Druk 1009 hPa
Zicht: 6000 m

METAR: OPKC 211855Z 27012KT 6000 NSC 27/20 Q1009 NOSIG

Tijdstip: 00:18 (19:18 UTC)

Verwachting

Dit bericht is 3 uur en het 18 minuten geleden gemaakt, om 16:00 UTC
Verwachting geldig van 21 om 18 UTC tot 22 om 24 UTC
Wind 5 kt uit het westen
Zicht: 5000 m
Weinig wolken op 2000 ft
rook
Tijdelijke
van 22 om 01 UTC tot 22 om 05 UTC
Wind kt uit het noorden
Zicht: 3000 m
Verspreide wolken op 2000 ft
nevel
Van 22 om 0700 UTC
Wind 8 kt uit het zuidwesten met uitschieters tot 18 kt
Zicht: 6000 m
Van 22 om 1900 UTC
Wind 8 kt uit het westen
Zicht: 4000 m
Weinig wolken op 2000 ft
rook

TAF: OPKC 211600Z 2118/2224 26005KT 5000 FU FEW020 TEMPO 2201/2205 00000KT 3000 BR SCT020 FM220700 23008G18KT 6000 NSC FM221900 26008KT 4000 FU FEW020

Waarnemingen en weersverwachtingen van meer dan 4000 vliegvelden (METAR en TAF).

De beschikbare stations zijn de gele en rode punten op de kaart.

Ga met uw muis naar het station om de naam te zien.

Klik dan om waarnemingen en weersverwachtingen te zien.

kaart wijzigen: klik op de groene knoppen met een zwart kruis om in te zoomen, op de groene knop met een streepje om uit te zoomen of op de groene pijlen voor aangrenzende kaarten.


METAR-TAF: